createdAt,value
2019-05-30T00:00:34.649Z,0.00
2019-05-30T00:01:34.558Z,0.00
2019-05-30T00:02:34.540Z,0.00
2019-05-30T00:03:34.541Z,0.00
2019-05-30T00:04:34.454Z,0.00
2019-05-30T00:05:34.440Z,0.00
2019-05-30T00:06:34.415Z,0.00
2019-05-30T00:07:34.379Z,0.00
2019-05-30T00:08:34.349Z,0.00
2019-05-30T00:09:34.303Z,0.00
2019-05-30T00:10:34.269Z,0.00
2019-05-30T00:11:34.254Z,0.00
2019-05-30T00:12:34.213Z,0.00
2019-05-30T00:13:34.165Z,0.00
2019-05-30T00:14:34.137Z,0.00
2019-05-30T00:15:34.118Z,0.00
2019-05-30T00:16:34.081Z,0.00
2019-05-30T00:17:34.060Z,0.00
2019-05-30T00:18:34.002Z,0.00
2019-05-30T00:19:34.221Z,0.00
2019-05-30T00:20:33.954Z,0.00
2019-05-30T00:21:33.928Z,0.00
2019-05-30T00:22:33.877Z,0.00
2019-05-30T00:23:33.846Z,0.00
2019-05-30T00:24:33.813Z,0.00
2019-05-30T00:25:33.779Z,0.00
2019-05-30T00:26:33.778Z,0.00
2019-05-30T00:27:33.746Z,0.00
2019-05-30T00:28:33.711Z,0.00
2019-05-30T00:29:33.633Z,0.00
2019-05-30T00:30:33.629Z,0.00
2019-05-30T00:31:33.717Z,0.00
2019-05-30T00:32:33.545Z,0.00
2019-05-30T00:33:33.541Z,0.00
2019-05-30T00:34:33.472Z,0.00
2019-05-30T00:35:33.438Z,0.00
2019-05-30T00:36:33.458Z,0.00
2019-05-30T00:37:33.392Z,0.00
2019-05-30T00:38:33.390Z,0.00
2019-05-30T00:39:33.309Z,0.00
2019-05-30T00:40:33.265Z,0.00
2019-05-30T00:41:33.368Z,0.00
2019-05-30T00:42:33.204Z,0.00
2019-05-30T00:43:33.182Z,0.00
2019-05-30T00:44:33.205Z,0.00
2019-05-30T00:45:33.108Z,0.00
2019-05-30T00:46:33.095Z,0.00
2019-05-30T00:47:34.056Z,0.00
2019-05-30T00:48:33.018Z,0.00
2019-05-30T00:49:33.008Z,0.00
2019-05-30T00:50:32.965Z,0.00
2019-05-30T00:51:33.162Z,0.00
2019-05-30T00:52:32.879Z,0.00
2019-05-30T00:53:32.848Z,0.00
2019-05-30T00:54:32.812Z,0.00
2019-05-30T00:55:32.776Z,0.00
2019-05-30T00:56:32.767Z,0.00
2019-05-30T00:57:32.736Z,0.00
2019-05-30T00:58:32.691Z,0.00
2019-05-30T00:59:32.659Z,0.00
2019-05-30T01:00:42.572Z,0.00
2019-05-30T01:01:32.613Z,0.00
2019-05-30T01:02:32.561Z,0.00
2019-05-30T01:03:32.551Z,0.00
2019-05-30T01:04:32.474Z,0.00
2019-05-30T01:05:32.492Z,0.00
2019-05-30T01:06:32.435Z,0.00
2019-05-30T01:07:32.413Z,0.00
2019-05-30T01:08:32.356Z,0.00
2019-05-30T01:09:32.304Z,0.00
2019-05-30T01:10:32.295Z,0.00
2019-05-30T01:11:32.272Z,0.00
2019-05-30T01:12:32.263Z,0.00
2019-05-30T01:13:32.201Z,0.00
2019-05-30T01:14:32.167Z,0.00
2019-05-30T01:15:32.163Z,0.00
2019-05-30T01:16:32.082Z,0.00
2019-05-30T01:17:32.100Z,0.00
2019-05-30T01:18:32.004Z,0.00
2019-05-30T01:19:32.027Z,0.00
2019-05-30T01:20:31.979Z,0.00
2019-05-30T01:21:32.010Z,0.00
2019-05-30T01:22:31.892Z,0.00
2019-05-30T01:23:31.842Z,0.00
2019-05-30T01:24:31.883Z,0.00
2019-05-30T01:25:31.814Z,0.00
2019-05-30T01:26:31.765Z,0.00
2019-05-30T01:27:31.778Z,0.00
2019-05-30T01:28:31.684Z,0.00
2019-05-30T01:29:31.649Z,0.00
2019-05-30T01:30:31.650Z,0.00
2019-05-30T01:31:31.595Z,0.00
2019-05-30T01:32:32.095Z,0.00
2019-05-30T01:33:31.509Z,0.00
2019-05-30T01:34:31.581Z,0.00
2019-05-30T01:35:31.468Z,0.00
2019-05-30T01:36:31.402Z,0.00
2019-05-30T01:37:31.406Z,0.00
2019-05-30T01:38:31.352Z,0.00
2019-05-30T01:39:31.321Z,0.00
2019-05-30T01:40:31.377Z,0.00
2019-05-30T01:41:31.306Z,0.00
2019-05-30T01:42:31.339Z,0.00
2019-05-30T01:43:31.199Z,0.00
2019-05-30T01:44:31.186Z,0.00
2019-05-30T01:45:31.130Z,0.00
2019-05-30T01:46:31.098Z,0.00
2019-05-30T01:47:31.141Z,0.00
2019-05-30T01:48:31.055Z,0.00
2019-05-30T01:49:31.002Z,0.00
2019-05-30T01:50:30.943Z,0.00
2019-05-30T01:51:30.999Z,0.00
2019-05-30T01:52:30.960Z,0.00
2019-05-30T01:53:30.933Z,0.00
2019-05-30T01:54:30.866Z,0.00
2019-05-30T01:55:30.835Z,0.00
2019-05-30T01:56:30.796Z,0.00
2019-05-30T01:57:31.563Z,0.00
2019-05-30T01:58:30.794Z,0.00
2019-05-30T01:59:30.651Z,0.00
2019-05-30T02:00:30.632Z,0.00
2019-05-30T02:01:30.572Z,0.00
2019-05-30T02:02:30.555Z,0.00
2019-05-30T02:03:30.512Z,0.00
2019-05-30T02:04:30.476Z,0.00
2019-05-30T02:05:30.504Z,0.00
2019-05-30T02:06:30.495Z,0.00
2019-05-30T02:07:30.498Z,0.00
2019-05-30T02:08:30.405Z,0.00
2019-05-30T02:09:30.303Z,0.00
2019-05-30T02:10:30.292Z,0.00
2019-05-30T02:11:30.282Z,0.00
2019-05-30T02:12:30.255Z,0.00
2019-05-30T02:13:30.208Z,0.00
2019-05-30T02:14:30.146Z,0.00
2019-05-30T02:15:30.140Z,0.00
2019-05-30T02:16:30.107Z,0.00
2019-05-30T02:17:30.567Z,0.00
2019-05-30T02:18:30.007Z,0.00
2019-05-30T02:19:29.961Z,0.00
2019-05-30T02:20:29.976Z,0.00
2019-05-30T02:21:29.923Z,0.00
2019-05-30T02:22:29.906Z,0.00
2019-05-30T02:23:29.859Z,0.00
2019-05-30T02:24:29.873Z,0.00
2019-05-30T02:25:29.820Z,0.00
2019-05-30T02:26:29.757Z,0.00
2019-05-30T02:27:29.799Z,0.00
2019-05-30T02:28:29.671Z,0.00
2019-05-30T02:29:29.633Z,0.00
2019-05-30T02:30:29.605Z,0.00
2019-05-30T02:31:39.005Z,0.00
2019-05-30T02:32:29.535Z,0.00
2019-05-30T02:33:29.593Z,0.00
2019-05-30T02:34:29.543Z,0.00
2019-05-30T02:35:29.505Z,0.00
2019-05-30T02:36:29.421Z,0.00
2019-05-30T02:37:29.399Z,0.00
2019-05-30T02:38:30.073Z,0.00
2019-05-30T02:39:29.353Z,0.00
2019-05-30T02:40:29.294Z,5.63
2019-05-30T02:41:29.226Z,5.63
2019-05-30T02:42:29.198Z,5.63
2019-05-30T02:43:29.337Z,5.63
2019-05-30T02:44:30.675Z,5.63
2019-05-30T02:45:29.111Z,5.63
2019-05-30T02:46:29.087Z,5.63
2019-05-30T02:47:29.037Z,5.63
2019-05-30T02:48:29.036Z,11.25
2019-05-30T02:49:28.977Z,11.25
2019-05-30T02:50:28.942Z,11.25
2019-05-30T02:51:28.907Z,11.25
2019-05-30T02:52:28.867Z,11.25
2019-05-30T02:53:28.875Z,11.25
2019-05-30T02:54:28.831Z,16.88
2019-05-30T02:55:28.766Z,16.88
2019-05-30T02:56:28.757Z,16.88
2019-05-30T02:57:28.698Z,16.88
2019-05-30T02:58:28.718Z,16.88
2019-05-30T02:59:28.633Z,22.50
2019-05-30T03:00:28.625Z,22.50
2019-05-30T03:01:28.562Z,22.50
2019-05-30T03:02:28.526Z,22.50
2019-05-30T03:03:28.558Z,28.13
2019-05-30T03:04:28.461Z,28.13
2019-05-30T03:05:28.494Z,28.13
2019-05-30T03:06:28.403Z,28.13
2019-05-30T03:07:28.363Z,33.75
2019-05-30T03:08:28.363Z,33.75
2019-05-30T03:09:28.314Z,33.75
2019-05-30T03:10:28.302Z,33.75
2019-05-30T03:11:28.235Z,39.38
2019-05-30T03:12:28.206Z,39.38
2019-05-30T03:13:28.223Z,39.38
2019-05-30T03:14:28.137Z,45.00
2019-05-30T03:15:28.100Z,45.00
2019-05-30T03:16:28.067Z,45.00
2019-05-30T03:17:28.036Z,50.63
2019-05-30T03:18:28.033Z,50.63
2019-05-30T03:19:27.962Z,56.25
2019-05-30T03:20:27.927Z,56.25
2019-05-30T03:21:27.892Z,61.88
2019-05-30T03:22:27.863Z,61.88
2019-05-30T03:23:27.855Z,67.50
2019-05-30T03:24:27.803Z,67.50
2019-05-30T03:25:27.766Z,67.50
2019-05-30T03:26:27.729Z,73.13
2019-05-30T03:27:27.694Z,73.13
2019-05-30T03:28:27.688Z,78.75
2019-05-30T03:29:27.631Z,78.75
2019-05-30T03:30:29.461Z,84.38
2019-05-30T03:31:29.691Z,84.38
2019-05-30T03:33:02.629Z,90.00
2019-05-30T03:33:38.866Z,90.00
2019-05-30T03:34:29.258Z,95.63
2019-05-30T03:35:31.267Z,95.63
2019-05-30T03:36:31.323Z,101.25
2019-05-30T03:37:29.854Z,101.25
2019-05-30T03:38:27.335Z,106.88
2019-05-30T03:39:27.326Z,106.88
2019-05-30T03:40:29.184Z,112.50
2019-05-30T03:41:27.231Z,118.13
2019-05-30T03:42:27.195Z,118.13
2019-05-30T03:43:27.160Z,123.75
2019-05-30T03:44:27.157Z,123.75
2019-05-30T03:45:27.098Z,129.38
2019-05-30T03:46:27.078Z,129.38
2019-05-30T03:47:27.106Z,140.63
2019-05-30T03:48:27.048Z,146.25
2019-05-30T03:49:26.994Z,146.25
2019-05-30T03:50:26.940Z,146.25
2019-05-30T03:51:26.902Z,146.25
2019-05-30T03:52:26.870Z,146.25
2019-05-30T03:53:26.838Z,146.25
2019-05-30T03:54:26.847Z,146.25
2019-05-30T03:55:26.778Z,146.25
2019-05-30T03:56:26.805Z,151.88
2019-05-30T03:57:26.710Z,151.88
2019-05-30T03:58:26.697Z,157.50
2019-05-30T03:59:26.679Z,157.50
2019-05-30T04:00:26.615Z,157.50
2019-05-30T04:01:26.576Z,163.13
2019-05-30T04:02:26.537Z,163.13
2019-05-30T04:03:26.505Z,163.13
2019-05-30T04:04:26.508Z,168.75
2019-05-30T04:05:26.438Z,168.75
2019-05-30T04:06:26.414Z,174.38
2019-05-30T04:07:26.378Z,180.00
2019-05-30T04:08:26.345Z,185.63
2019-05-30T04:09:26.339Z,202.50
2019-05-30T04:10:26.279Z,208.13
2019-05-30T04:11:26.247Z,202.50
2019-05-30T04:12:26.211Z,208.13
2019-05-30T04:13:26.180Z,202.50
2019-05-30T04:14:26.224Z,208.13
2019-05-30T04:15:26.121Z,208.13
2019-05-30T04:16:26.094Z,202.50
2019-05-30T04:17:26.051Z,208.13
2019-05-30T04:18:26.030Z,219.38
2019-05-30T04:19:26.036Z,225.00
2019-05-30T04:20:25.968Z,219.38
2019-05-30T04:21:25.926Z,213.75
2019-05-30T04:22:25.903Z,213.75
2019-05-30T04:23:25.869Z,213.75
2019-05-30T04:24:25.829Z,213.75
2019-05-30T04:25:25.820Z,213.75
2019-05-30T04:26:25.762Z,213.75
2019-05-30T04:27:25.731Z,213.75
2019-05-30T04:28:25.703Z,213.75
2019-05-30T04:29:25.666Z,219.38
2019-05-30T04:30:25.662Z,219.38
2019-05-30T04:31:32.651Z,230.63
2019-05-30T04:32:26.179Z,236.25
2019-05-30T04:33:32.334Z,236.25
2019-05-30T04:34:25.519Z,236.25
2019-05-30T04:35:25.504Z,241.88
2019-05-30T04:36:25.446Z,241.88
2019-05-30T04:37:25.424Z,247.50
2019-05-30T04:38:25.382Z,253.13
2019-05-30T04:39:25.354Z,253.13
2019-05-30T04:40:25.348Z,258.75
2019-05-30T04:41:25.291Z,253.13
2019-05-30T04:42:25.258Z,253.13
2019-05-30T04:43:25.231Z,253.13
2019-05-30T04:44:25.199Z,253.13
2019-05-30T04:45:27.977Z,253.13
2019-05-30T04:46:25.130Z,258.75
2019-05-30T04:47:25.099Z,258.75
2019-05-30T04:48:25.073Z,258.75
2019-05-30T04:49:25.039Z,258.75
2019-05-30T04:50:25.038Z,258.75
2019-05-30T04:51:24.977Z,258.75
2019-05-30T04:52:25.200Z,264.38
2019-05-30T04:53:24.922Z,264.38
2019-05-30T04:54:24.887Z,258.75
2019-05-30T04:55:24.892Z,264.38
2019-05-30T04:56:24.820Z,270.00
2019-05-30T04:57:27.044Z,270.00
2019-05-30T04:58:24.764Z,270.00
2019-05-30T04:59:24.734Z,270.00
2019-05-30T05:00:24.730Z,270.00
2019-05-30T05:01:24.676Z,270.00
2019-05-30T05:02:24.647Z,270.00
2019-05-30T05:03:44.110Z,270.00
2019-05-30T05:04:24.591Z,270.00
2019-05-30T05:05:26.994Z,270.00
2019-05-30T05:06:24.519Z,270.00
2019-05-30T05:07:25.180Z,270.00
2019-05-30T05:08:24.461Z,275.63
2019-05-30T05:09:24.429Z,275.63
2019-05-30T05:10:24.427Z,281.25
2019-05-30T05:11:25.447Z,275.63
2019-05-30T05:12:24.339Z,275.63
2019-05-30T05:13:24.311Z,286.88
2019-05-30T05:14:24.300Z,286.88
2019-05-30T05:15:24.242Z,286.88
2019-05-30T05:16:34.929Z,286.88
2019-05-30T05:17:24.365Z,286.88
2019-05-30T05:18:24.160Z,286.88
2019-05-30T05:19:26.257Z,298.13
2019-05-30T05:20:24.094Z,303.75
2019-05-30T05:21:24.100Z,292.50
2019-05-30T05:22:24.060Z,298.13
2019-05-30T05:23:24.006Z,298.13
2019-05-30T05:24:24.026Z,298.13
2019-05-30T05:25:23.953Z,298.13
2019-05-30T05:26:23.937Z,303.75
2019-05-30T05:27:24.067Z,303.75
2019-05-30T05:28:24.085Z,303.75
2019-05-30T05:29:24.190Z,298.13
2019-05-30T05:30:24.392Z,303.75
2019-05-30T05:31:24.454Z,303.75
2019-05-30T05:32:24.643Z,298.13
2019-05-30T05:33:24.776Z,303.75
2019-05-30T05:34:24.802Z,303.75
2019-05-30T05:35:24.925Z,303.75
2019-05-30T05:36:23.638Z,303.75
2019-05-30T05:37:23.592Z,303.75
2019-05-30T05:38:24.419Z,303.75
2019-05-30T05:39:24.210Z,303.75
2019-05-30T05:40:24.400Z,303.75
2019-05-30T05:41:24.331Z,309.38
2019-05-30T05:42:28.050Z,303.75
2019-05-30T05:43:24.484Z,303.75
2019-05-30T05:44:24.450Z,303.75
2019-05-30T05:45:24.616Z,303.75
2019-05-30T05:46:24.521Z,309.38
2019-05-30T05:47:24.548Z,309.38
2019-05-30T05:48:24.570Z,309.38
2019-05-30T05:49:24.872Z,309.38
2019-05-30T05:50:24.503Z,315.00
2019-05-30T05:51:23.223Z,315.00
2019-05-30T05:52:23.152Z,315.00
2019-05-30T05:53:23.170Z,315.00
2019-05-30T05:54:23.100Z,320.63
2019-05-30T05:55:23.062Z,320.63
2019-05-30T05:56:23.033Z,320.63
2019-05-30T05:57:23.042Z,320.63
2019-05-30T05:58:23.940Z,320.63
2019-05-30T05:59:23.114Z,320.63
2019-05-30T06:00:23.385Z,326.25
2019-05-30T06:01:23.402Z,326.25
2019-05-30T06:02:23.280Z,326.25
2019-05-30T06:03:24.143Z,326.25
2019-05-30T06:04:23.299Z,331.88
2019-05-30T06:05:22.773Z,331.88
2019-05-30T06:06:23.438Z,331.88
2019-05-30T06:07:22.743Z,331.88
2019-05-30T06:08:23.730Z,331.88
2019-05-30T06:09:24.603Z,331.88
2019-05-30T06:10:23.722Z,331.88
2019-05-30T06:11:22.761Z,331.88
2019-05-30T06:12:23.793Z,331.88
2019-05-30T06:13:22.896Z,331.88
2019-05-30T06:14:22.821Z,326.25
2019-05-30T06:15:22.924Z,326.25
2019-05-30T06:16:22.467Z,326.25
2019-05-30T06:17:23.119Z,320.63
2019-05-30T06:18:22.418Z,320.63
2019-05-30T06:19:23.225Z,320.63
2019-05-30T06:20:23.318Z,320.63
2019-05-30T06:21:23.419Z,320.63
2019-05-30T06:22:23.613Z,320.63
2019-05-30T06:23:23.390Z,315.00
2019-05-30T06:24:22.230Z,315.00
2019-05-30T06:25:24.613Z,309.38
2019-05-30T06:26:22.511Z,303.75
2019-05-30T06:27:22.170Z,303.75
2019-05-30T06:28:22.118Z,298.13
2019-05-30T06:29:22.187Z,298.13
2019-05-30T06:30:22.388Z,292.50
2019-05-30T06:31:22.460Z,286.88
2019-05-30T06:32:22.910Z,281.25
2019-05-30T06:33:23.557Z,281.25
2019-05-30T06:34:34.865Z,281.25
2019-05-30T06:35:22.991Z,281.25
2019-05-30T06:36:22.961Z,286.88
2019-05-30T06:37:23.063Z,292.50
2019-05-30T06:38:21.839Z,292.50
2019-05-30T06:39:21.818Z,292.50
2019-05-30T06:40:21.784Z,298.13
2019-05-30T06:41:21.761Z,298.13
2019-05-30T06:42:21.774Z,298.13
2019-05-30T06:43:21.956Z,298.13
2019-05-30T06:44:22.213Z,303.75
2019-05-30T06:45:23.665Z,303.75
2019-05-30T06:46:22.093Z,303.75
2019-05-30T06:47:22.178Z,303.75
2019-05-30T06:48:22.604Z,303.75
2019-05-30T06:49:22.792Z,303.75
2019-05-30T06:50:22.471Z,309.38
2019-05-30T06:51:22.588Z,309.38
2019-05-30T06:52:21.488Z,309.38
2019-05-30T06:53:21.422Z,309.38
2019-05-30T06:54:21.898Z,309.38
2019-05-30T06:55:21.365Z,309.38
2019-05-30T06:56:21.337Z,309.38
2019-05-30T06:57:21.334Z,309.38
2019-05-30T06:58:39.131Z,315.00
2019-05-30T06:59:21.468Z,315.00
2019-05-30T07:00:21.702Z,315.00
2019-05-30T07:01:22.017Z,315.00
2019-05-30T07:02:22.253Z,315.00
2019-05-30T07:03:22.133Z,315.00
2019-05-30T07:04:22.808Z,315.00
2019-05-30T07:05:22.915Z,315.00
2019-05-30T07:06:22.538Z,315.00
2019-05-30T07:07:22.727Z,315.00
2019-05-30T07:08:21.047Z,309.38
2019-05-30T07:09:20.995Z,309.38
2019-05-30T07:10:22.662Z,309.38
2019-05-30T07:11:20.925Z,309.38
2019-05-30T07:12:20.900Z,309.38
2019-05-30T07:13:20.895Z,309.38
2019-05-30T07:14:20.846Z,309.38
2019-05-30T07:15:20.821Z,309.38
2019-05-30T07:16:20.795Z,303.75
2019-05-30T07:17:20.764Z,303.75
2019-05-30T07:18:20.758Z,303.75
2019-05-30T07:19:20.719Z,298.13
2019-05-30T07:20:20.677Z,298.13
2019-05-30T07:21:20.659Z,298.13
2019-05-30T07:22:20.632Z,292.50
2019-05-30T07:23:20.631Z,292.50
2019-05-30T07:24:20.575Z,292.50
2019-05-30T07:25:20.547Z,292.50
2019-05-30T07:26:20.514Z,286.88
2019-05-30T07:27:20.495Z,286.88
2019-05-30T07:28:20.486Z,286.88
2019-05-30T07:29:20.442Z,286.88
2019-05-30T07:30:20.417Z,286.88
2019-05-30T07:31:20.391Z,286.88
2019-05-30T07:32:20.358Z,292.50
2019-05-30T07:33:20.354Z,292.50
2019-05-30T07:34:20.309Z,292.50
2019-05-30T07:35:20.304Z,292.50
2019-05-30T07:36:21.206Z,292.50
2019-05-30T07:37:20.258Z,292.50
2019-05-30T07:38:20.241Z,292.50
2019-05-30T07:39:20.181Z,292.50
2019-05-30T07:40:20.143Z,292.50
2019-05-30T07:41:20.119Z,292.50
2019-05-30T07:42:20.103Z,292.50
2019-05-30T07:43:20.087Z,292.50
2019-05-30T07:44:20.042Z,292.50
2019-05-30T07:45:20.012Z,292.50
2019-05-30T07:46:19.995Z,292.50
2019-05-30T07:47:19.958Z,292.50
2019-05-30T07:48:19.928Z,292.50
2019-05-30T07:49:19.925Z,292.50
2019-05-30T07:50:19.884Z,292.50
2019-05-30T07:51:19.850Z,292.50
2019-05-30T07:52:19.821Z,292.50
2019-05-30T07:53:19.836Z,292.50
2019-05-30T07:54:19.795Z,292.50
2019-05-30T07:55:19.741Z,292.50
2019-05-30T07:56:19.725Z,298.13
2019-05-30T07:57:19.694Z,298.13
2019-05-30T07:58:19.675Z,298.13
2019-05-30T07:59:19.775Z,292.50
2019-05-30T08:00:19.612Z,292.50
2019-05-30T08:01:19.585Z,298.13
2019-05-30T08:02:19.555Z,298.13
2019-05-30T08:03:19.529Z,298.13
2019-05-30T08:04:19.581Z,298.13
2019-05-30T08:05:24.000Z,292.50
2019-05-30T08:06:19.450Z,292.50
2019-05-30T08:07:19.422Z,298.13
2019-05-30T08:08:19.401Z,292.50
2019-05-30T08:09:19.401Z,292.50
2019-05-30T08:10:20.222Z,292.50
2019-05-30T08:11:19.332Z,292.50
2019-05-30T08:12:19.294Z,292.50
2019-05-30T08:13:19.268Z,292.50
2019-05-30T08:14:19.267Z,292.50
2019-05-30T08:15:19.213Z,292.50
2019-05-30T08:16:19.198Z,292.50
2019-05-30T08:17:19.164Z,292.50
2019-05-30T08:18:19.146Z,292.50
2019-05-30T08:19:19.133Z,292.50
2019-05-30T08:20:19.089Z,292.50
2019-05-30T08:21:19.070Z,292.50
2019-05-30T08:22:19.048Z,292.50
2019-05-30T08:23:19.010Z,292.50
2019-05-30T08:24:19.017Z,292.50
2019-05-30T08:25:18.953Z,292.50
2019-05-30T08:26:18.986Z,292.50
2019-05-30T08:27:19.051Z,292.50
2019-05-30T08:28:18.889Z,292.50
2019-05-30T08:29:18.886Z,292.50
2019-05-30T08:30:18.831Z,292.50
2019-05-30T08:31:18.802Z,292.50
2019-05-30T08:32:18.781Z,292.50
2019-05-30T08:33:21.519Z,292.50
2019-05-30T08:34:18.750Z,292.50
2019-05-30T08:35:18.699Z,292.50
2019-05-30T08:36:18.681Z,292.50
2019-05-30T08:37:18.673Z,292.50
2019-05-30T08:38:18.617Z,292.50
2019-05-30T08:39:18.618Z,292.50
2019-05-30T08:40:18.569Z,292.50
2019-05-30T08:41:18.565Z,292.50
2019-05-30T08:42:18.531Z,292.50
2019-05-30T08:43:18.496Z,292.50
2019-05-30T08:44:18.493Z,292.50
2019-05-30T08:45:18.441Z,292.50
2019-05-30T08:46:18.420Z,292.50
2019-05-30T08:47:18.393Z,292.50
2019-05-30T08:48:18.372Z,298.13
2019-05-30T08:49:18.376Z,292.50
2019-05-30T08:50:18.319Z,292.50
2019-05-30T08:51:18.307Z,292.50
2019-05-30T08:52:18.265Z,286.88
2019-05-30T08:53:18.249Z,292.50
2019-05-30T08:54:18.269Z,292.50
2019-05-30T08:55:18.194Z,292.50
2019-05-30T08:56:18.170Z,286.88
2019-05-30T08:57:18.136Z,286.88
2019-05-30T08:58:18.138Z,286.88
2019-05-30T08:59:18.111Z,286.88
2019-05-30T09:00:18.066Z,286.88
2019-05-30T09:01:18.038Z,286.88
2019-05-30T09:02:18.020Z,286.88
2019-05-30T09:03:17.992Z,286.88
2019-05-30T09:04:17.962Z,286.88
2019-05-30T09:05:17.970Z,286.88
2019-05-30T09:06:17.941Z,292.50
2019-05-30T09:07:17.890Z,286.88
2019-05-30T09:08:17.869Z,286.88
2019-05-30T09:09:17.833Z,292.50
2019-05-30T09:10:17.886Z,298.13
2019-05-30T09:11:17.788Z,292.50
2019-05-30T09:12:17.763Z,292.50
2019-05-30T09:13:17.735Z,292.50
2019-05-30T09:14:17.720Z,292.50
2019-05-30T09:15:21.603Z,292.50
2019-05-30T09:16:17.663Z,292.50
2019-05-30T09:17:17.639Z,292.50
2019-05-30T09:18:17.614Z,286.88
2019-05-30T09:19:17.589Z,286.88
2019-05-30T09:20:17.590Z,286.88
2019-05-30T09:21:17.540Z,286.88
2019-05-30T09:22:17.562Z,286.88
2019-05-30T09:23:17.488Z,286.88
2019-05-30T09:24:17.563Z,286.88
2019-05-30T09:25:17.460Z,286.88
2019-05-30T09:26:17.411Z,286.88
2019-05-30T09:27:17.388Z,286.88
2019-05-30T09:28:17.364Z,286.88
2019-05-30T09:29:17.333Z,286.88
2019-05-30T09:30:17.342Z,286.88
2019-05-30T09:31:17.283Z,286.88
2019-05-30T09:32:17.268Z,286.88
2019-05-30T09:33:17.738Z,286.88
2019-05-30T09:34:17.215Z,286.88
2019-05-30T09:35:17.209Z,286.88
2019-05-30T09:36:17.170Z,286.88
2019-05-30T09:37:17.144Z,286.88
2019-05-30T09:38:17.148Z,286.88
2019-05-30T09:39:20.666Z,286.88
2019-05-30T09:40:17.100Z,292.50
2019-05-30T09:41:17.036Z,292.50
2019-05-30T09:42:17.013Z,292.50
2019-05-30T09:43:17.095Z,292.50
2019-05-30T09:44:16.970Z,298.13
2019-05-30T09:45:17.358Z,298.13
2019-05-30T09:46:16.985Z,298.13
2019-05-30T09:47:16.889Z,298.13
2019-05-30T09:48:22.667Z,298.13
2019-05-30T09:49:16.843Z,298.13
2019-05-30T09:50:16.853Z,298.13
2019-05-30T09:51:16.796Z,298.13
2019-05-30T09:52:16.770Z,303.75
2019-05-30T09:53:17.296Z,303.75
2019-05-30T09:54:16.723Z,303.75
2019-05-30T09:55:16.760Z,309.38
2019-05-30T09:56:16.675Z,309.38
2019-05-30T09:57:16.666Z,309.38
2019-05-30T09:58:16.630Z,309.38
2019-05-30T09:59:16.599Z,309.38
2019-05-30T10:00:16.596Z,309.38
2019-05-30T10:01:16.555Z,309.38
2019-05-30T10:02:16.530Z,309.38
2019-05-30T10:03:16.539Z,309.38
2019-05-30T10:04:16.483Z,309.38
2019-05-30T10:05:16.484Z,309.38
2019-05-30T10:06:28.392Z,309.38
2019-05-30T10:07:16.412Z,315.00
2019-05-30T10:08:16.458Z,315.00
2019-05-30T10:09:16.357Z,315.00
2019-05-30T10:10:16.424Z,315.00
2019-05-30T10:11:16.314Z,315.00
2019-05-30T10:12:17.170Z,320.63
2019-05-30T10:13:16.274Z,320.63
2019-05-30T10:14:16.239Z,320.63
2019-05-30T10:15:16.215Z,326.25
2019-05-30T10:16:16.218Z,326.25
2019-05-30T10:17:16.173Z,326.25
2019-05-30T10:18:16.144Z,326.25
2019-05-30T10:19:16.118Z,331.88
2019-05-30T10:20:16.096Z,331.88
2019-05-30T10:21:16.106Z,331.88
2019-05-30T10:22:16.056Z,331.88
2019-05-30T10:23:16.035Z,337.50
2019-05-30T10:24:16.006Z,337.50
2019-05-30T10:25:15.990Z,337.50
2019-05-30T10:26:15.983Z,337.50
2019-05-30T10:27:15.937Z,337.50
2019-05-30T10:28:16.017Z,337.50
2019-05-30T10:29:15.900Z,337.50
2019-05-30T10:30:15.869Z,337.50
2019-05-30T10:31:15.865Z,337.50
2019-05-30T10:32:25.277Z,337.50
2019-05-30T10:33:15.793Z,337.50
2019-05-30T10:34:15.773Z,337.50
2019-05-30T10:35:15.747Z,337.50
2019-05-30T10:36:15.742Z,337.50
2019-05-30T10:37:15.700Z,343.13
2019-05-30T10:38:15.695Z,343.13
2019-05-30T10:39:15.649Z,343.13
2019-05-30T10:40:15.635Z,343.13
2019-05-30T10:41:15.632Z,343.13
2019-05-30T10:42:15.607Z,337.50
2019-05-30T10:43:15.565Z,337.50
2019-05-30T10:44:15.539Z,331.88
2019-05-30T10:45:15.513Z,331.88
2019-05-30T10:46:15.538Z,326.25
2019-05-30T10:47:15.464Z,331.88
2019-05-30T10:48:15.440Z,331.88
2019-05-30T10:49:15.417Z,331.88
2019-05-30T10:50:15.427Z,331.88
2019-05-30T10:51:15.395Z,331.88
2019-05-30T10:52:15.358Z,331.88
2019-05-30T10:53:15.334Z,337.50
2019-05-30T10:54:15.306Z,337.50
2019-05-30T10:55:15.305Z,337.50
2019-05-30T10:56:15.290Z,337.50
2019-05-30T10:57:15.237Z,343.13
2019-05-30T10:58:15.215Z,343.13
2019-05-30T10:59:15.192Z,348.75
2019-05-30T11:00:15.171Z,354.38
2019-05-30T11:01:15.180Z,354.38
2019-05-30T11:02:15.125Z,365.63
2019-05-30T11:03:15.105Z,365.63
2019-05-30T11:04:15.099Z,337.50
2019-05-30T11:05:15.068Z,354.38
2019-05-30T11:06:15.069Z,360.00
2019-05-30T11:07:15.009Z,365.63
2019-05-30T11:08:14.984Z,365.63
2019-05-30T11:09:14.967Z,371.25
2019-05-30T11:10:14.950Z,371.25
2019-05-30T11:11:14.961Z,371.25
2019-05-30T11:12:14.928Z,371.25
2019-05-30T11:13:14.894Z,371.25
2019-05-30T11:14:14.847Z,371.25
2019-05-30T11:15:14.826Z,376.88
2019-05-30T11:16:14.824Z,382.50
2019-05-30T11:17:14.836Z,399.38
2019-05-30T11:18:14.774Z,399.38
2019-05-30T11:19:14.744Z,410.63
2019-05-30T11:20:14.729Z,410.63
2019-05-30T11:21:14.726Z,416.25
2019-05-30T11:22:14.705Z,427.50
2019-05-30T11:23:14.647Z,444.38
2019-05-30T11:24:14.626Z,450.00
2019-05-30T11:25:14.601Z,450.00
2019-05-30T11:26:14.595Z,450.00
2019-05-30T11:27:14.594Z,444.38
2019-05-30T11:28:14.548Z,433.13
2019-05-30T11:29:14.510Z,427.50
2019-05-30T11:30:14.511Z,427.50
2019-05-30T11:31:14.468Z,427.50
2019-05-30T11:32:14.475Z,421.88
2019-05-30T11:33:14.425Z,421.88
2019-05-30T11:34:14.401Z,433.13
2019-05-30T11:35:14.382Z,410.63
2019-05-30T11:36:14.359Z,444.38
2019-05-30T11:37:18.474Z,472.50
2019-05-30T11:38:14.318Z,478.13
2019-05-30T11:39:14.339Z,444.38
2019-05-30T11:40:14.270Z,466.88
2019-05-30T11:41:14.296Z,466.88
2019-05-30T11:42:14.253Z,495.00
2019-05-30T11:43:14.210Z,506.25
2019-05-30T11:44:14.201Z,517.50
2019-05-30T11:45:14.174Z,528.75
2019-05-30T11:46:14.171Z,579.38
2019-05-30T11:47:14.164Z,579.38
2019-05-30T11:48:14.171Z,579.38
2019-05-30T11:49:14.076Z,545.63
2019-05-30T11:50:14.061Z,511.88
2019-05-30T11:51:14.042Z,495.00
2019-05-30T11:52:14.039Z,489.38
2019-05-30T11:53:13.991Z,540.00
2019-05-30T11:54:13.974Z,601.88
2019-05-30T11:55:14.001Z,652.50
2019-05-30T11:56:13.938Z,675.00
2019-05-30T11:57:13.938Z,703.13
2019-05-30T11:58:13.904Z,691.88
2019-05-30T11:59:13.865Z,680.63
2019-05-30T12:00:13.846Z,675.00
2019-05-30T12:01:13.892Z,613.13
2019-05-30T12:02:13.833Z,607.50
2019-05-30T12:03:13.783Z,635.63
2019-05-30T12:04:13.759Z,641.25
2019-05-30T12:05:13.744Z,635.63
2019-05-30T12:06:13.728Z,652.50
2019-05-30T12:07:13.696Z,686.25
2019-05-30T12:08:13.710Z,708.75
2019-05-30T12:09:14.667Z,742.50
2019-05-30T12:10:13.647Z,720.00
2019-05-30T12:11:13.632Z,731.25
2019-05-30T12:12:13.619Z,759.38
2019-05-30T12:13:13.620Z,781.88
2019-05-30T12:14:13.560Z,765.00
2019-05-30T12:15:13.540Z,759.38
2019-05-30T12:16:13.555Z,742.50
2019-05-30T12:17:13.504Z,731.25
2019-05-30T12:18:13.505Z,720.00
2019-05-30T12:19:13.461Z,703.13
2019-05-30T12:20:13.544Z,697.50
2019-05-30T12:21:13.424Z,686.25
2019-05-30T12:22:13.403Z,675.00
2019-05-30T12:23:13.412Z,691.88
2019-05-30T12:24:13.401Z,703.13
2019-05-30T12:25:13.395Z,686.25
2019-05-30T12:26:13.355Z,658.13
2019-05-30T12:27:13.372Z,630.00
2019-05-30T12:28:14.341Z,601.88
2019-05-30T12:29:13.387Z,590.63
2019-05-30T12:30:14.253Z,579.38
2019-05-30T12:31:13.337Z,556.88
2019-05-30T12:32:13.395Z,528.75
2019-05-30T12:33:13.387Z,500.63
2019-05-30T12:34:16.244Z,472.50
2019-05-30T12:35:13.263Z,450.00
2019-05-30T12:36:13.301Z,438.75
2019-05-30T12:37:13.144Z,444.38
2019-05-30T12:38:13.740Z,450.00
2019-05-30T12:39:13.145Z,444.38
2019-05-30T12:40:13.350Z,438.75